UNR Ag. Experiment Farm, Sparks, Nevada Weather observations

Data are for 10 minute period ending at time listed.
 Day   Time   Solar   Ave.   Ave.  Ave.  Vector  Max.   Baro.   Total    
  of    of     Rad.   Air    Rel.  Wind   Wind   Wind  Press.  Precip.   
Year   Day            Temp.  Hum.  Speed  Dir.   Gust                    
2020   (PST)  Kw/m2    F      %     mph   deg.    mph    mb.     in.     
-------------------------------------------------------------------------
 152   11:20   0.98   66.7    36    1.9    10     5.8   863.9    0.00 
 152   11:30   1.00   66.9    35    1.8   303     4.2   863.8    0.00 
 152   11:40   0.99   67.7    35    1.8   342     7.2   863.7    0.00 
 152   11:50   0.97   68.5    32    1.5   182     4.3   863.6    0.00 
 152   12:00   1.03   69.1    34    3.0   354     6.6   863.4    0.00 
 152   12:10   1.01   68.8    37    5.5   318     9.1   863.2    0.00 
 152   12:20   1.02   69.1    31    2.5     8     7.1   863.0    0.00 
 152   12:30   1.00   70.3    32    4.0    58    10.2   863.0    0.00 
 152   12:40   1.01   71.1    30    2.8    51     8.4   863.0    0.00 
 152   12:50   0.99   71.5    31    3.8    14    10.7   862.9    0.00 
 152   13:00   0.68   70.6    30    3.5   344     6.6   862.8    0.00 
 152   13:10   0.74   71.0    32    2.7     4     5.3   862.7    0.00 
 152   13:20   0.69   71.5    32    3.4   334     6.6   862.7    0.00 
 152   13:30   0.68   71.7    29    3.2   292     5.8   862.6    0.00 
 152   13:40   0.82   72.8    28    2.6   350     8.6   862.6    0.00 
 152   13:50   0.92   73.1    30    3.8   357     7.8   862.4    0.00 
 152   14:00   0.74   73.3    30    3.2    28     6.9   862.3    0.00 
 152   14:10   0.77   72.7    32    5.8   342    10.9   862.1    0.00 
 152   14:20   0.81   73.7    27    3.0    76     6.4   862.2    0.00 
 152   14:30   0.66   74.0    28    4.0   330     9.8   862.2    0.00 
 152   14:40   0.74   73.4    30    5.3   341     8.8   862.1    0.00 
 152   14:50   0.50   73.3    30    3.4   330     8.8   862.0    0.00 
 152   15:00   0.46   73.0    30    3.8   343     6.6   862.0    0.00 
 152   15:10   0.54   73.2    28    4.4   327     7.5   862.0    0.00 
 152   15:20   0.50   73.8    28    3.5    16     6.7   861.9    0.00 
 152   15:30   0.32   74.0    28    1.3    18     2.9   861.8    0.00 
 152   15:40   0.23   73.4    29    2.3   306     4.4   861.7    0.00 
 152   15:50   0.19   73.1    25    1.8   288     5.8   861.7    0.00 
 152   16:00   0.17   73.2    26    1.4   312     3.1   861.6    0.00 
 152   16:10   0.15   73.2    26    1.3    30     2.4   861.5    0.00 
 152   16:20   0.17   73.1    30    2.8    76     3.9   861.5    0.00 
 152   16:30   0.16   73.0    34    2.5    65     4.7   861.4    0.00 
 152   16:40   0.11   71.1    37    7.8   295    12.6   861.4    0.00 
 152   16:50   0.12   69.7    39   10.3   301    14.3   861.4    0.00 
 152   17:00   0.16   69.7    40    9.3   298    13.4   861.4    0.00 
 152   17:10   0.20   69.7    40    8.9   293    14.2   861.6    0.00 
 152   17:20   0.10   69.2    42    7.0   286    11.0   861.8    0.00 
 152   17:30   0.05   68.4    42    8.5   281    14.4   861.9    0.00 
 152   17:40   0.06   68.4    42    8.1   254    14.0   862.1    0.00 
 152   17:50   0.09   67.8    47    5.2   271     8.3   862.1    0.00 
 152   18:00   0.06   67.6    44    7.9   130    14.0   862.0    0.00 
 152   18:10   0.02   67.5    44    6.0   148    11.2   862.1    0.00 
 152   18:20   0.01   67.2    45    9.4   166    17.3   862.3    0.00 
 152   18:30   0.01   65.9    44   17.1   195    27.4   862.8    0.00 
 152   18:40   0.01   62.3    59   12.1   185    20.0   863.2    0.00 
 152   18:50   0.01   62.5    56    9.4   182    20.1   863.1    0.00 
 152   19:00   0.01   63.5    49   11.3   159    17.2   862.9    0.00 
 152   19:10   0.00   63.7    50    5.8   155    11.0   862.9    0.00 
 152   19:20   0.00   62.4    54    4.2   222     8.3   863.0    0.00 
 152   19:30   0.00   62.9    49    5.6   189    11.0   863.1    0.00 
 152   19:40   0.00   62.8    50    3.4   169     5.9   863.2    0.00 
 152   19:50   0.00   62.4    51    3.8   162     5.8   863.2    0.00 
 152   20:00   0.00   62.4    52    1.9   152     3.7   863.1    0.00 
 152   20:10   0.00   62.1    56    1.6   224     3.7   863.2    0.00 
 152   20:20   0.00   61.3    57    0.9   303     1.8   863.1    0.00 
 152   20:30   0.00   61.6    58    1.0    51     3.5   863.0    0.00 
 152   20:40   0.00   60.7    64    2.2    50     5.1   862.9    0.00 
 152   20:50   0.00   60.2    66    4.6    25     6.4   863.0    0.00 
 152   21:00   0.00   60.8    63    7.0    27    11.2   863.0    0.00 
 152   21:10   0.00   60.8    63    6.8    17    10.7   863.0    0.00 
 152   21:20   0.00   60.4    63    5.9    20     9.4   863.0    0.00 
 152   21:30   0.00   60.7    61    4.4    29     6.4   863.0    0.00 
 152   21:40   0.00   60.6    61    3.6    20     5.0   863.0    0.00 
 152   21:50   0.00   60.1    66    4.2     0     6.8   863.0    0.00 
 152   22:00   0.00   59.5    70    4.1   353     7.3   863.0    0.00 
 152   22:10   0.00   58.9    72    4.2   322     6.3   863.0    0.00 
 152   22:20   0.00   58.9    70    4.9   327     7.0   863.1    0.00 
 152   22:30   0.00   59.0    70    1.3   342     4.5   863.3    0.00 
 152   22:40   0.00   59.1    68    0.1    51     0.8   863.3    0.00 
 152   22:50   0.00   59.1    68    0.1    36     1.6   863.2    0.00 
 152   23:00   0.00   58.8    71    0.3   233     2.0   863.3    0.00 
 152   23:10   0.00   58.1    70    2.6   167     4.5   863.6    0.00 
 152   23:20   0.00   59.0    67    1.4   296     2.8   863.6    0.00 
 152   23:30   0.00   58.7    72    3.2    12     4.5   863.5    0.00 
 152   23:40   0.00   57.7    74    3.4   122     5.3   863.6    0.00 
 152   23:50   0.00   58.6    70    2.1    76     3.2   863.6    0.00 
 153    0:00   0.00   58.6    70    2.4    40     4.6   863.6    0.00 
 153    0:10   0.00   58.4    70    1.5    14     4.9   863.6    0.00 
 153    0:20   0.00   58.6    67    2.5    62     4.5   863.7    0.00 
 153    0:30   0.00   58.7    68    1.8    75     3.7   863.7    0.00 
 153    0:40   0.00   58.8    66    4.0    62     5.5   863.7    0.00 
 153    0:50   0.00   58.2    68    3.4    67     5.7   863.6    0.00 
 153    1:00   0.00   58.1    67    3.7    50     5.0   863.5    0.00 
 153    1:10   0.00   58.2    67    4.6   346     7.7   863.4    0.00 
 153    1:20   0.00   58.9    66    3.9   348     4.7   863.4    0.00 
 153    1:30   0.00   58.4    69    3.5     7     4.6   863.3    0.00 
 153    1:40   0.00   59.1    63    3.0   315     5.6   863.3    0.00 
 153    1:50   0.00   59.8    54    5.5   289    10.0   863.4    0.00 
 153    2:00   0.00   60.1    52    5.7   308    10.4   863.6    0.00 
 153    2:10   0.00   59.8    55    4.5     6     7.5   863.6    0.00 
 153    2:20   0.00   59.1    57    3.6    37     6.1   863.4    0.00 
 153    2:30   0.00   59.1    57    2.8    31     5.9   863.4    0.00 
 153    2:40   0.00   58.5    59    4.1    18     5.8   863.4    0.00 
 153    2:50   0.00   57.6    64    3.5    10     5.0   863.4    0.00 
 153    3:00   0.00   57.6    60    3.6    22     6.0   863.5    0.00 
 153    3:10   0.00   58.6    56    3.0    16     5.2   863.6    0.00 
 153    3:20   0.00   58.1    58    4.0   347     8.6   863.6    0.00 
 153    3:30   0.00   57.2    62    3.4   343     5.5   863.6    0.00 
 153    3:40   0.00   57.1    57    2.9   316     4.7   863.7    0.00 
 153    3:50   0.00   58.3    55    2.5   340     3.3   863.7    0.00 
 153    4:00   0.00   57.2    60    1.7     5     2.9   863.8    0.00 
 153    4:10   0.00   57.9    56    1.3    27     3.3   864.0    0.00 
 153    4:20   0.00   57.4    61    2.5    51     5.9   864.1    0.00 
 153    4:30   0.00   56.6    64    2.8    17     4.5   864.1    0.00 
 153    4:40   0.00   56.5    63    3.6    17     6.3   864.3    0.00 
 153    4:50   0.01   56.7    64    4.4     4     6.5   864.4    0.00 
 153    5:00   0.01   56.5    65    4.6   356     6.0   864.4    0.00 
 153    5:10   0.02   56.0    67    4.1   346     6.4   864.5    0.00 
 153    5:20   0.03   56.3    66    4.5     0     7.6   864.5    0.00 
 153    5:30   0.05   56.6    66    4.3     9     6.4   864.6    0.00 
 153    5:40   0.08   56.9    65    5.3    13     8.3   864.7    0.00 
 153    5:50   0.07   57.2    66    4.5    14     6.6   864.8    0.00 
 153    6:00   0.06   57.2    65    4.1     6     6.1   865.0    0.00 
 153    6:10   0.06   57.3    65    4.7   358     6.4   864.9    0.00 
 153    6:20   0.05   57.5    62    5.1    21     7.6   865.0    0.00 
 153    6:30   0.06   57.6    62    4.6    27     6.3   865.1    0.00 
 153    6:40   0.07   57.8    62    4.1    24     6.3   865.2    0.00 
 153    6:50   0.09   58.2    60    4.1    25     6.7   865.2    0.00 
 153    7:00   0.09   58.4    62    2.9    17     4.7   865.3    0.00 
 153    7:10   0.13   58.9    60    3.6    19     6.3   865.4    0.00 
 153    7:20   0.18   59.4    58    4.8    13     7.2   865.4    0.00 
 153    7:30   0.21   59.9    56    5.8     6     8.0   865.5    0.00 
 153    7:40   0.24   60.2    56    5.3    20     8.6   865.6    0.00 
 153    7:50   0.25   60.6    54    5.7    11     8.0   865.7    0.00 
 153    8:00   0.23   60.7    52    6.3     1     8.8   865.8    0.00 
 153    8:10   0.22   60.7    51    5.7    21     7.9   865.9    0.00 
 153    8:20   0.26   61.0    51    4.8    17     8.8   866.0    0.00 
 153    8:30   0.30   61.4    50    4.5     8     6.9   866.0    0.00 
 153    8:40   0.33   62.5    48    3.2    43     6.0   866.1    0.00 
 153    8:50   0.41   62.7    49    3.2    22     8.4   866.2    0.00 
 153    9:00   0.82   63.9    48    4.4    16     7.3   866.2    0.00 
 153    9:10   0.96   65.1    45    3.9    12     8.6   866.2    0.00 
 153    9:20   0.64   64.5    46    6.2   317     9.9   866.3    0.00 
 153    9:30   0.78   64.2    46    4.5   351     9.1   866.4    0.00 
 153    9:40   0.98   65.7    41    2.7   346     8.3   866.4    0.00 
 153    9:50   0.88   66.1    43    5.3    30     9.1   866.5    0.00 
 153   10:00   0.99   66.6    43    3.9    11     9.9   866.5    0.00 
 153   10:10   0.82   67.5    38    3.0    30     7.1   866.5    0.00 
 153   10:20   0.75   67.4    39    1.5   342     4.7   866.5    0.00 
 153   10:30   0.93   68.8    37    3.4    52     7.0   866.4    0.00 
 153   10:40   0.61   67.8    38    3.5    22     6.8   866.4    0.00 
 153   10:50   0.73   67.7    38    3.9    36     8.2   866.3    0.00 
 153   11:00   0.84   68.0    38    3.3     5     5.8   866.3    0.00 
 153   11:10   0.63   68.9    36    4.4    64     7.7   866.1    0.00 

Return to Sparks, Nevada, UNR Ag Experiment Farm graphs page.


Western Regional Climate Center,wrcc@dri.edu